sensor_id;sensor_type;location;lat;lon;timestamp;P1;durP1;ratioP1;P2;durP2;ratioP2
71792;SDS011;59639;51.170;6.456;2022-08-05T00:00:58;8.30;;;3.50;;
71792;SDS011;59639;51.170;6.456;2022-08-05T00:03:24;9.85;;;4.00;;
71792;SDS011;59639;51.170;6.456;2022-08-05T00:05:49;7.68;;;3.70;;
71792;SDS011;59639;51.170;6.456;2022-08-05T00:08:14;13.20;;;3.90;;
71792;SDS011;59639;51.170;6.456;2022-08-05T00:10:40;8.10;;;3.97;;
71792;SDS011;59639;51.170;6.456;2022-08-05T00:13:05;9.55;;;4.75;;
71792;SDS011;59639;51.170;6.456;2022-08-05T00:15:31;5.30;;;3.85;;
71792;SDS011;59639;51.170;6.456;2022-08-05T00:17:56;9.60;;;4.25;;
71792;SDS011;59639;51.170;6.456;2022-08-05T00:20:21;8.70;;;3.92;;
71792;SDS011;59639;51.170;6.456;2022-08-05T00:22:50;13.63;;;4.75;;
71792;SDS011;59639;51.170;6.456;2022-08-05T00:25:15;11.90;;;4.10;;
71792;SDS011;59639;51.170;6.456;2022-08-05T00:27:40;16.95;;;4.88;;
71792;SDS011;59639;51.170;6.456;2022-08-05T00:30:06;6.88;;;3.95;;
71792;SDS011;59639;51.170;6.456;2022-08-05T00:32:32;9.82;;;4.05;;
71792;SDS011;59639;51.170;6.456;2022-08-05T00:34:57;11.88;;;4.30;;
71792;SDS011;59639;51.170;6.456;2022-08-05T00:37:22;7.93;;;4.57;;
71792;SDS011;59639;51.170;6.456;2022-08-05T00:39:48;7.80;;;4.30;;
71792;SDS011;59639;51.170;6.456;2022-08-05T00:42:13;8.57;;;4.28;;
71792;SDS011;59639;51.170;6.456;2022-08-05T00:44:41;11.18;;;5.43;;
71792;SDS011;59639;51.170;6.456;2022-08-05T00:47:06;13.18;;;4.63;;
71792;SDS011;59639;51.170;6.456;2022-08-05T00:49:32;12.88;;;5.00;;
71792;SDS011;59639;51.170;6.456;2022-08-05T00:51:57;8.73;;;4.32;;
71792;SDS011;59639;51.170;6.456;2022-08-05T00:54:23;10.70;;;5.88;;
71792;SDS011;59639;51.170;6.456;2022-08-05T00:56:48;7.97;;;3.65;;
71792;SDS011;59639;51.170;6.456;2022-08-05T00:59:14;9.68;;;3.80;;
71792;SDS011;59639;51.170;6.456;2022-08-05T01:01:39;6.03;;;3.65;;
71792;SDS011;59639;51.170;6.456;2022-08-05T01:04:05;9.57;;;4.55;;
71792;SDS011;59639;51.170;6.456;2022-08-05T01:06:30;11.35;;;5.68;;
71792;SDS011;59639;51.170;6.456;2022-08-05T01:08:55;13.35;;;5.72;;
71792;SDS011;59639;51.170;6.456;2022-08-05T01:11:22;10.90;;;4.78;;
71792;SDS011;59639;51.170;6.456;2022-08-05T01:16:29;13.38;;;4.53;;
71792;SDS011;59639;51.170;6.456;2022-08-05T01:19:25;7.68;;;3.72;;
71792;SDS011;59639;51.170;6.456;2022-08-05T01:30:02;14.02;;;5.03;;
71792;SDS011;59639;51.170;6.456;2022-08-05T01:32:31;12.60;;;5.03;;
71792;SDS011;59639;51.170;6.456;2022-08-05T01:35:05;9.25;;;5.07;;
71792;SDS011;59639;51.170;6.456;2022-08-05T01:40:05;7.80;;;4.28;;
71792;SDS011;59639;51.170;6.456;2022-08-05T01:42:32;8.02;;;4.80;;
71792;SDS011;59639;51.170;6.456;2022-08-05T01:45:03;7.25;;;4.53;;
71792;SDS011;59639;51.170;6.456;2022-08-05T01:47:31;11.52;;;4.10;;
71792;SDS011;59639;51.170;6.456;2022-08-05T01:50:00;10.65;;;5.32;;
71792;SDS011;59639;51.170;6.456;2022-08-05T01:52:28;6.18;;;3.97;;
71792;SDS011;59639;51.170;6.456;2022-08-05T01:54:56;11.00;;;4.80;;
71792;SDS011;59639;51.170;6.456;2022-08-05T01:57:37;11.73;;;5.20;;
71792;SDS011;59639;51.170;6.456;2022-08-05T02:00:06;9.85;;;4.78;;
71792;SDS011;59639;51.170;6.456;2022-08-05T02:02:34;10.63;;;4.93;;
71792;SDS011;59639;51.170;6.456;2022-08-05T02:05:05;12.18;;;5.20;;
71792;SDS011;59639;51.170;6.456;2022-08-05T02:07:33;12.10;;;5.57;;
71792;SDS011;59639;51.170;6.456;2022-08-05T02:09:59;11.43;;;6.25;;
71792;SDS011;59639;51.170;6.456;2022-08-05T02:12:45;14.80;;;6.45;;
71792;SDS011;59639;51.170;6.456;2022-08-05T02:15:26;9.43;;;5.55;;
71792;SDS011;59639;51.170;6.456;2022-08-05T02:17:57;13.35;;;6.63;;
71792;SDS011;59639;51.170;6.456;2022-08-05T02:20:29;15.02;;;5.65;;
71792;SDS011;59639;51.170;6.456;2022-08-05T02:22:59;10.80;;;6.07;;
71792;SDS011;59639;51.170;6.456;2022-08-05T02:25:36;12.15;;;5.95;;
71792;SDS011;59639;51.170;6.456;2022-08-05T02:28:05;16.50;;;6.75;;
71792;SDS011;59639;51.170;6.456;2022-08-05T02:30:41;11.65;;;6.63;;
71792;SDS011;59639;51.170;6.456;2022-08-05T02:33:10;10.82;;;5.63;;
71792;SDS011;59639;51.170;6.456;2022-08-05T02:35:40;12.20;;;6.90;;
71792;SDS011;59639;51.170;6.456;2022-08-05T02:38:08;23.80;;;7.13;;
71792;SDS011;59639;51.170;6.456;2022-08-05T02:40:34;9.82;;;6.90;;
71792;SDS011;59639;51.170;6.456;2022-08-05T02:43:01;19.08;;;7.63;;
71792;SDS011;59639;51.170;6.456;2022-08-05T02:45:30;12.60;;;6.57;;
71792;SDS011;59639;51.170;6.456;2022-08-05T02:47:59;12.50;;;7.50;;
71792;SDS011;59639;51.170;6.456;2022-08-05T02:50:26;18.23;;;7.43;;
71792;SDS011;59639;51.170;6.456;2022-08-05T02:52:53;14.45;;;8.00;;
71792;SDS011;59639;51.170;6.456;2022-08-05T02:55:19;12.05;;;6.70;;
71792;SDS011;59639;51.170;6.456;2022-08-05T02:57:46;15.73;;;7.20;;
71792;SDS011;59639;51.170;6.456;2022-08-05T03:00:12;13.23;;;7.75;;
71792;SDS011;59639;51.170;6.456;2022-08-05T03:02:39;15.02;;;8.15;;
71792;SDS011;59639;51.170;6.456;2022-08-05T03:05:08;12.40;;;7.85;;
71792;SDS011;59639;51.170;6.456;2022-08-05T03:07:35;12.02;;;7.40;;
71792;SDS011;59639;51.170;6.456;2022-08-05T03:10:02;15.27;;;8.60;;
71792;SDS011;59639;51.170;6.456;2022-08-05T03:12:31;12.18;;;8.68;;
71792;SDS011;59639;51.170;6.456;2022-08-05T03:15:02;12.07;;;7.60;;
71792;SDS011;59639;51.170;6.456;2022-08-05T03:17:30;15.75;;;8.57;;
71792;SDS011;59639;51.170;6.456;2022-08-05T03:19:55;15.82;;;8.40;;
71792;SDS011;59639;51.170;6.456;2022-08-05T03:22:21;13.05;;;8.48;;
71792;SDS011;59639;51.170;6.456;2022-08-05T03:24:50;18.05;;;8.68;;
71792;SDS011;59639;51.170;6.456;2022-08-05T03:27:16;15.88;;;7.68;;
71792;SDS011;59639;51.170;6.456;2022-08-05T03:29:42;13.77;;;8.70;;
71792;SDS011;59639;51.170;6.456;2022-08-05T03:32:08;17.70;;;8.55;;
71792;SDS011;59639;51.170;6.456;2022-08-05T03:34:34;14.35;;;8.48;;
71792;SDS011;59639;51.170;6.456;2022-08-05T03:37:00;12.65;;;8.02;;
71792;SDS011;59639;51.170;6.456;2022-08-05T03:39:27;12.38;;;8.70;;
71792;SDS011;59639;51.170;6.456;2022-08-05T03:41:53;19.73;;;8.80;;
71792;SDS011;59639;51.170;6.456;2022-08-05T03:44:20;17.60;;;9.05;;
71792;SDS011;59639;51.170;6.456;2022-08-05T03:46:45;17.38;;;9.85;;
71792;SDS011;59639;51.170;6.456;2022-08-05T03:49:12;18.33;;;10.75;;
71792;SDS011;59639;51.170;6.456;2022-08-05T03:51:38;19.27;;;11.73;;
71792;SDS011;59639;51.170;6.456;2022-08-05T03:54:18;18.15;;;11.60;;
71792;SDS011;59639;51.170;6.456;2022-08-05T03:56:51;17.75;;;10.82;;
71792;SDS011;59639;51.170;6.456;2022-08-05T03:59:23;18.65;;;10.90;;
71792;SDS011;59639;51.170;6.456;2022-08-05T04:01:57;22.67;;;11.05;;
71792;SDS011;59639;51.170;6.456;2022-08-05T04:04:24;15.77;;;11.20;;
71792;SDS011;59639;51.170;6.456;2022-08-05T04:06:51;23.13;;;11.93;;
71792;SDS011;59639;51.170;6.456;2022-08-05T04:09:17;16.60;;;10.73;;
71792;SDS011;59639;51.170;6.456;2022-08-05T04:11:43;21.90;;;12.43;;
71792;SDS011;59639;51.170;6.456;2022-08-05T04:14:08;16.77;;;12.02;;
71792;SDS011;59639;51.170;6.456;2022-08-05T04:16:34;15.52;;;10.98;;
71792;SDS011;59639;51.170;6.456;2022-08-05T04:19:01;17.58;;;12.30;;
71792;SDS011;59639;51.170;6.456;2022-08-05T04:21:27;22.60;;;14.15;;
71792;SDS011;59639;51.170;6.456;2022-08-05T04:23:53;20.58;;;12.68;;
71792;SDS011;59639;51.170;6.456;2022-08-05T04:26:19;26.08;;;13.45;;
71792;SDS011;59639;51.170;6.456;2022-08-05T04:28:44;20.80;;;13.30;;
71792;SDS011;59639;51.170;6.456;2022-08-05T04:31:10;23.35;;;13.10;;
71792;SDS011;59639;51.170;6.456;2022-08-05T04:33:35;18.55;;;12.88;;
71792;SDS011;59639;51.170;6.456;2022-08-05T04:36:00;20.17;;;12.45;;
71792;SDS011;59639;51.170;6.456;2022-08-05T04:38:26;22.15;;;13.50;;
71792;SDS011;59639;51.170;6.456;2022-08-05T04:40:51;21.90;;;13.75;;
71792;SDS011;59639;51.170;6.456;2022-08-05T04:43:17;22.13;;;13.45;;
71792;SDS011;59639;51.170;6.456;2022-08-05T04:45:42;27.63;;;14.48;;
71792;SDS011;59639;51.170;6.456;2022-08-05T04:48:09;23.75;;;15.07;;
71792;SDS011;59639;51.170;6.456;2022-08-05T04:50:37;24.38;;;14.75;;
71792;SDS011;59639;51.170;6.456;2022-08-05T04:53:07;29.10;;;15.48;;
71792;SDS011;59639;51.170;6.456;2022-08-05T04:55:34;22.05;;;14.95;;
71792;SDS011;59639;51.170;6.456;2022-08-05T04:58:00;24.98;;;14.88;;
71792;SDS011;59639;51.170;6.456;2022-08-05T05:00:25;25.35;;;14.93;;
71792;SDS011;59639;51.170;6.456;2022-08-05T05:02:51;23.35;;;16.35;;
71792;SDS011;59639;51.170;6.456;2022-08-05T05:05:16;29.83;;;18.00;;
71792;SDS011;59639;51.170;6.456;2022-08-05T05:07:41;27.55;;;16.73;;
71792;SDS011;59639;51.170;6.456;2022-08-05T05:10:07;25.25;;;17.00;;
71792;SDS011;59639;51.170;6.456;2022-08-05T05:12:32;27.15;;;17.17;;
71792;SDS011;59639;51.170;6.456;2022-08-05T05:14:58;24.50;;;16.60;;
71792;SDS011;59639;51.170;6.456;2022-08-05T05:17:23;22.75;;;15.45;;
71792;SDS011;59639;51.170;6.456;2022-08-05T05:19:48;28.08;;;15.80;;
71792;SDS011;59639;51.170;6.456;2022-08-05T05:22:14;29.48;;;15.80;;
71792;SDS011;59639;51.170;6.456;2022-08-05T05:24:39;24.27;;;15.02;;
71792;SDS011;59639;51.170;6.456;2022-08-05T05:27:04;22.02;;;14.52;;
71792;SDS011;59639;51.170;6.456;2022-08-05T05:29:30;25.10;;;15.77;;
71792;SDS011;59639;51.170;6.456;2022-08-05T05:31:55;22.90;;;15.13;;
71792;SDS011;59639;51.170;6.456;2022-08-05T05:34:21;33.53;;;15.68;;
71792;SDS011;59639;51.170;6.456;2022-08-05T05:36:46;30.55;;;14.48;;
71792;SDS011;59639;51.170;6.456;2022-08-05T05:39:12;22.42;;;12.32;;
71792;SDS011;59639;51.170;6.456;2022-08-05T05:41:37;23.17;;;13.50;;
71792;SDS011;59639;51.170;6.456;2022-08-05T05:44:03;25.13;;;14.02;;
71792;SDS011;59639;51.170;6.456;2022-08-05T05:46:28;19.52;;;13.43;;
71792;SDS011;59639;51.170;6.456;2022-08-05T05:48:54;30.67;;;14.20;;
71792;SDS011;59639;51.170;6.456;2022-08-05T05:51:23;21.98;;;14.68;;
71792;SDS011;59639;51.170;6.456;2022-08-05T05:53:50;32.97;;;17.30;;
71792;SDS011;59639;51.170;6.456;2022-08-05T05:56:16;25.73;;;15.05;;
71792;SDS011;59639;51.170;6.456;2022-08-05T05:58:44;22.20;;;14.52;;
71792;SDS011;59639;51.170;6.456;2022-08-05T06:01:11;21.17;;;13.60;;
71792;SDS011;59639;51.170;6.456;2022-08-05T06:03:38;26.20;;;14.23;;
71792;SDS011;59639;51.170;6.456;2022-08-05T06:06:04;20.08;;;10.98;;
71792;SDS011;59639;51.170;6.456;2022-08-05T06:08:31;25.58;;;11.82;;
71792;SDS011;59639;51.170;6.456;2022-08-05T06:10:56;19.15;;;12.73;;
71792;SDS011;59639;51.170;6.456;2022-08-05T06:13:22;21.27;;;12.38;;
71792;SDS011;59639;51.170;6.456;2022-08-05T06:15:47;22.00;;;11.02;;
71792;SDS011;59639;51.170;6.456;2022-08-05T06:18:13;21.38;;;11.18;;
71792;SDS011;59639;51.170;6.456;2022-08-05T06:20:38;19.27;;;10.90;;
71792;SDS011;59639;51.170;6.456;2022-08-05T06:23:03;16.08;;;9.27;;
71792;SDS011;59639;51.170;6.456;2022-08-05T06:25:29;23.02;;;10.98;;
71792;SDS011;59639;51.170;6.456;2022-08-05T06:27:54;21.33;;;9.10;;
71792;SDS011;59639;51.170;6.456;2022-08-05T06:30:19;20.60;;;7.95;;
71792;SDS011;59639;51.170;6.456;2022-08-05T06:32:45;17.80;;;8.85;;
71792;SDS011;59639;51.170;6.456;2022-08-05T06:35:10;17.63;;;7.50;;
71792;SDS011;59639;51.170;6.456;2022-08-05T06:37:36;12.77;;;6.88;;
71792;SDS011;59639;51.170;6.456;2022-08-05T06:40:02;15.07;;;7.72;;
71792;SDS011;59639;51.170;6.456;2022-08-05T06:42:28;13.63;;;7.60;;
71792;SDS011;59639;51.170;6.456;2022-08-05T06:44:54;18.52;;;7.22;;
71792;SDS011;59639;51.170;6.456;2022-08-05T06:47:19;13.32;;;7.70;;
71792;SDS011;59639;51.170;6.456;2022-08-05T06:49:45;12.13;;;7.28;;
71792;SDS011;59639;51.170;6.456;2022-08-05T06:52:11;11.95;;;6.28;;
71792;SDS011;59639;51.170;6.456;2022-08-05T06:54:36;17.48;;;7.40;;
71792;SDS011;59639;51.170;6.456;2022-08-05T06:57:02;9.85;;;5.93;;
71792;SDS011;59639;51.170;6.456;2022-08-05T06:59:28;15.60;;;6.65;;
71792;SDS011;59639;51.170;6.456;2022-08-05T07:01:53;9.98;;;6.13;;
71792;SDS011;59639;51.170;6.456;2022-08-05T07:04:18;14.65;;;6.63;;
71792;SDS011;59639;51.170;6.456;2022-08-05T07:06:44;15.77;;;6.75;;
71792;SDS011;59639;51.170;6.456;2022-08-05T07:09:09;14.57;;;7.38;;
71792;SDS011;59639;51.170;6.456;2022-08-05T07:11:35;9.43;;;5.90;;
71792;SDS011;59639;51.170;6.456;2022-08-05T07:14:00;11.55;;;6.53;;
71792;SDS011;59639;51.170;6.456;2022-08-05T07:16:44;13.23;;;6.72;;
71792;SDS011;59639;51.170;6.456;2022-08-05T07:19:16;15.70;;;6.15;;
71792;SDS011;59639;51.170;6.456;2022-08-05T07:21:49;12.95;;;6.38;;
71792;SDS011;59639;51.170;6.456;2022-08-05T07:24:14;14.05;;;5.32;;
71792;SDS011;59639;51.170;6.456;2022-08-05T07:26:41;15.82;;;5.32;;
71792;SDS011;59639;51.170;6.456;2022-08-05T07:29:07;11.90;;;6.63;;
71792;SDS011;59639;51.170;6.456;2022-08-05T07:31:33;14.02;;;5.32;;
71792;SDS011;59639;51.170;6.456;2022-08-05T07:33:58;13.35;;;5.40;;
71792;SDS011;59639;51.170;6.456;2022-08-05T07:36:24;9.15;;;4.50;;
71792;SDS011;59639;51.170;6.456;2022-08-05T07:38:50;10.95;;;4.97;;
71792;SDS011;59639;51.170;6.456;2022-08-05T07:41:16;9.88;;;5.05;;
71792;SDS011;59639;51.170;6.456;2022-08-05T07:43:43;12.02;;;4.70;;
71792;SDS011;59639;51.170;6.456;2022-08-05T07:46:09;12.45;;;4.63;;
71792;SDS011;59639;51.170;6.456;2022-08-05T07:48:34;11.55;;;5.00;;
71792;SDS011;59639;51.170;6.456;2022-08-05T07:51:00;8.32;;;4.63;;
71792;SDS011;59639;51.170;6.456;2022-08-05T07:53:25;12.40;;;4.47;;
71792;SDS011;59639;51.170;6.456;2022-08-05T07:55:51;9.13;;;4.72;;
71792;SDS011;59639;51.170;6.456;2022-08-05T07:58:16;10.85;;;4.85;;
71792;SDS011;59639;51.170;6.456;2022-08-05T08:00:42;13.02;;;4.68;;
71792;SDS011;59639;51.170;6.456;2022-08-05T08:03:09;8.50;;;4.68;;
71792;SDS011;59639;51.170;6.456;2022-08-05T08:05:36;10.80;;;4.03;;
71792;SDS011;59639;51.170;6.456;2022-08-05T08:08:01;11.98;;;3.75;;
71792;SDS011;59639;51.170;6.456;2022-08-05T08:10:27;10.77;;;4.30;;
71792;SDS011;59639;51.170;6.456;2022-08-05T08:12:53;13.60;;;4.40;;
71792;SDS011;59639;51.170;6.456;2022-08-05T08:15:18;9.63;;;4.25;;
71792;SDS011;59639;51.170;6.456;2022-08-05T08:17:44;12.88;;;4.68;;
71792;SDS011;59639;51.170;6.456;2022-08-05T08:20:10;10.63;;;3.60;;
71792;SDS011;59639;51.170;6.456;2022-08-05T08:22:36;11.27;;;4.05;;
71792;SDS011;59639;51.170;6.456;2022-08-05T08:25:02;8.32;;;3.88;;
71792;SDS011;59639;51.170;6.456;2022-08-05T08:27:29;9.48;;;3.90;;
71792;SDS011;59639;51.170;6.456;2022-08-05T08:29:55;14.57;;;4.60;;
71792;SDS011;59639;51.170;6.456;2022-08-05T08:32:20;10.35;;;3.80;;
71792;SDS011;59639;51.170;6.456;2022-08-05T08:34:45;7.50;;;3.55;;
71792;SDS011;59639;51.170;6.456;2022-08-05T08:37:11;9.88;;;3.63;;
71792;SDS011;59639;51.170;6.456;2022-08-05T08:39:36;11.20;;;3.90;;
71792;SDS011;59639;51.170;6.456;2022-08-05T08:42:02;10.05;;;3.80;;
71792;SDS011;59639;51.170;6.456;2022-08-05T08:44:29;11.98;;;3.40;;
71792;SDS011;59639;51.170;6.456;2022-08-05T08:46:55;4.88;;;3.40;;
71792;SDS011;59639;51.170;6.456;2022-08-05T08:49:22;6.63;;;3.30;;
71792;SDS011;59639;51.170;6.456;2022-08-05T08:51:50;5.53;;;2.78;;
71792;SDS011;59639;51.170;6.456;2022-08-05T08:54:22;10.98;;;4.80;;
71792;SDS011;59639;51.170;6.456;2022-08-05T08:56:48;8.45;;;3.65;;
71792;SDS011;59639;51.170;6.456;2022-08-05T08:59:13;10.88;;;4.05;;
71792;SDS011;59639;51.170;6.456;2022-08-05T09:01:38;9.40;;;3.47;;
71792;SDS011;59639;51.170;6.456;2022-08-05T09:04:06;8.85;;;3.95;;
71792;SDS011;59639;51.170;6.456;2022-08-05T09:06:32;6.47;;;3.40;;
71792;SDS011;59639;51.170;6.456;2022-08-05T09:08:58;8.57;;;3.42;;
71792;SDS011;59639;51.170;6.456;2022-08-05T09:11:25;14.23;;;4.10;;
71792;SDS011;59639;51.170;6.456;2022-08-05T09:13:51;13.70;;;4.53;;
71792;SDS011;59639;51.170;6.456;2022-08-05T09:16:18;11.32;;;4.22;;
71792;SDS011;59639;51.170;6.456;2022-08-05T09:18:43;14.63;;;4.07;;
71792;SDS011;59639;51.170;6.456;2022-08-05T09:21:08;7.70;;;3.30;;
71792;SDS011;59639;51.170;6.456;2022-08-05T09:23:34;11.43;;;4.28;;
71792;SDS011;59639;51.170;6.456;2022-08-05T09:26:05;7.88;;;3.47;;
71792;SDS011;59639;51.170;6.456;2022-08-05T09:28:36;7.35;;;3.85;;
71792;SDS011;59639;51.170;6.456;2022-08-05T09:31:07;7.63;;;3.67;;
71792;SDS011;59639;51.170;6.456;2022-08-05T09:33:45;5.57;;;2.78;;
71792;SDS011;59639;51.170;6.456;2022-08-05T09:36:38;5.68;;;3.05;;
71792;SDS011;59639;51.170;6.456;2022-08-05T09:39:05;8.65;;;3.13;;
71792;SDS011;59639;51.170;6.456;2022-08-05T09:41:33;8.32;;;3.40;;
71792;SDS011;59639;51.170;6.456;2022-08-05T09:43:58;8.60;;;3.85;;
71792;SDS011;59639;51.170;6.456;2022-08-05T09:46:27;11.20;;;3.30;;
71792;SDS011;59639;51.170;6.456;2022-08-05T09:48:58;8.52;;;2.60;;
71792;SDS011;59639;51.170;6.456;2022-08-05T09:51:32;12.40;;;2.60;;
71792;SDS011;59639;51.170;6.456;2022-08-05T09:54:03;11.07;;;2.53;;
71792;SDS011;59639;51.170;6.456;2022-08-05T09:56:32;6.82;;;2.67;;
71792;SDS011;59639;51.170;6.456;2022-08-05T09:59:03;6.05;;;2.83;;
71792;SDS011;59639;51.170;6.456;2022-08-05T10:01:32;4.47;;;2.42;;
71792;SDS011;59639;51.170;6.456;2022-08-05T10:04:02;6.22;;;2.80;;
71792;SDS011;59639;51.170;6.456;2022-08-05T10:06:30;4.40;;;2.20;;
71792;SDS011;59639;51.170;6.456;2022-08-05T10:09:29;5.82;;;2.45;;
71792;SDS011;59639;51.170;6.456;2022-08-05T10:14:26;7.72;;;2.78;;
71792;SDS011;59639;51.170;6.456;2022-08-05T10:16:53;4.30;;;2.70;;
71792;SDS011;59639;51.170;6.456;2022-08-05T10:19:23;9.02;;;2.63;;
71792;SDS011;59639;51.170;6.456;2022-08-05T10:21:51;6.22;;;2.10;;
71792;SDS011;59639;51.170;6.456;2022-08-05T10:24:17;7.28;;;2.00;;
71792;SDS011;59639;51.170;6.456;2022-08-05T10:26:45;6.15;;;2.13;;
71792;SDS011;59639;51.170;6.456;2022-08-05T10:29:12;5.78;;;2.10;;
71792;SDS011;59639;51.170;6.456;2022-08-05T10:31:37;4.68;;;1.98;;
71792;SDS011;59639;51.170;6.456;2022-08-05T10:34:04;4.50;;;2.30;;
71792;SDS011;59639;51.170;6.456;2022-08-05T10:36:31;5.57;;;2.63;;
71792;SDS011;59639;51.170;6.456;2022-08-05T10:38:58;6.28;;;2.78;;
71792;SDS011;59639;51.170;6.456;2022-08-05T10:41:34;24.17;;;3.35;;
71792;SDS011;59639;51.170;6.456;2022-08-05T10:44:08;8.25;;;2.65;;
71792;SDS011;59639;51.170;6.456;2022-08-05T10:46:50;6.68;;;3.10;;
71792;SDS011;59639;51.170;6.456;2022-08-05T10:49:17;7.87;;;2.93;;
71792;SDS011;59639;51.170;6.456;2022-08-05T10:51:50;6.15;;;3.03;;
71792;SDS011;59639;51.170;6.456;2022-08-05T10:54:44;7.53;;;3.00;;
71792;SDS011;59639;51.170;6.456;2022-08-05T10:57:27;9.15;;;3.22;;
71792;SDS011;59639;51.170;6.456;2022-08-05T11:00:12;7.47;;;3.05;;
71792;SDS011;59639;51.170;6.456;2022-08-05T11:05:29;4.35;;;2.72;;
71792;SDS011;59639;51.170;6.456;2022-08-05T11:08:02;4.40;;;2.53;;
71792;SDS011;59639;51.170;6.456;2022-08-05T11:10:30;9.68;;;3.10;;
71792;SDS011;59639;51.170;6.456;2022-08-05T11:12:57;10.75;;;2.70;;
71792;SDS011;59639;51.170;6.456;2022-08-05T11:17:53;4.78;;;2.75;;
71792;SDS011;59639;51.170;6.456;2022-08-05T11:20:33;4.70;;;2.88;;
71792;SDS011;59639;51.170;6.456;2022-08-05T11:33:35;7.93;;;3.03;;
71792;SDS011;59639;51.170;6.456;2022-08-05T11:36:17;6.63;;;2.88;;
71792;SDS011;59639;51.170;6.456;2022-08-05T11:43:57;8.43;;;3.35;;
71792;SDS011;59639;51.170;6.456;2022-08-05T11:46:27;11.52;;;3.55;;
71792;SDS011;59639;51.170;6.456;2022-08-05T11:48:53;9.52;;;3.78;;
71792;SDS011;59639;51.170;6.456;2022-08-05T11:51:21;10.30;;;4.82;;
71792;SDS011;59639;51.170;6.456;2022-08-05T11:53:47;10.00;;;3.20;;
71792;SDS011;59639;51.170;6.456;2022-08-05T11:56:13;10.02;;;3.63;;
71792;SDS011;59639;51.170;6.456;2022-08-05T11:58:40;7.88;;;3.08;;
71792;SDS011;59639;51.170;6.456;2022-08-05T12:06:14;8.45;;;3.08;;
71792;SDS011;59639;51.170;6.456;2022-08-05T12:08:59;8.23;;;2.80;;
71792;SDS011;59639;51.170;6.456;2022-08-05T12:11:25;7.32;;;3.25;;
71792;SDS011;59639;51.170;6.456;2022-08-05T12:13:53;11.95;;;4.43;;
71792;SDS011;59639;51.170;6.456;2022-08-05T12:16:19;9.57;;;2.97;;
71792;SDS011;59639;51.170;6.456;2022-08-05T12:18:45;6.55;;;3.03;;
71792;SDS011;59639;51.170;6.456;2022-08-05T12:21:15;9.10;;;3.47;;
71792;SDS011;59639;51.170;6.456;2022-08-05T12:26:18;5.45;;;2.38;;
71792;SDS011;59639;51.170;6.456;2022-08-05T12:28:44;8.00;;;2.80;;
71792;SDS011;59639;51.170;6.456;2022-08-05T12:31:10;3.65;;;2.30;;
71792;SDS011;59639;51.170;6.456;2022-08-05T12:33:35;6.25;;;2.67;;
71792;SDS011;59639;51.170;6.456;2022-08-05T12:36:02;8.15;;;2.25;;
71792;SDS011;59639;51.170;6.456;2022-08-05T12:38:27;11.30;;;2.70;;
71792;SDS011;59639;51.170;6.456;2022-08-05T12:40:54;5.68;;;2.63;;
71792;SDS011;59639;51.170;6.456;2022-08-05T12:43:20;8.25;;;2.88;;
71792;SDS011;59639;51.170;6.456;2022-08-05T12:45:50;11.02;;;2.97;;
71792;SDS011;59639;51.170;6.456;2022-08-05T12:48:19;9.75;;;3.13;;
71792;SDS011;59639;51.170;6.456;2022-08-05T12:51:07;13.35;;;3.20;;
71792;SDS011;59639;51.170;6.456;2022-08-05T12:53:43;4.90;;;2.40;;
71792;SDS011;59639;51.170;6.456;2022-08-05T12:56:22;11.27;;;3.35;;
71792;SDS011;59639;51.170;6.456;2022-08-05T13:01:39;10.07;;;4.60;;
71792;SDS011;59639;51.170;6.456;2022-08-05T13:04:06;11.20;;;4.00;;
71792;SDS011;59639;51.170;6.456;2022-08-05T13:06:32;11.13;;;4.40;;
71792;SDS011;59639;51.170;6.456;2022-08-05T13:09:05;10.30;;;5.18;;
71792;SDS011;59639;51.170;6.456;2022-08-05T13:11:32;11.50;;;4.57;;
71792;SDS011;59639;51.170;6.456;2022-08-05T13:14:01;10.57;;;3.78;;
71792;SDS011;59639;51.170;6.456;2022-08-05T13:16:26;8.30;;;3.88;;
71792;SDS011;59639;51.170;6.456;2022-08-05T13:18:52;10.18;;;3.67;;
71792;SDS011;59639;51.170;6.456;2022-08-05T13:21:19;8.68;;;3.80;;
71792;SDS011;59639;51.170;6.456;2022-08-05T13:23:44;6.72;;;3.78;;
71792;SDS011;59639;51.170;6.456;2022-08-05T13:26:10;8.05;;;3.60;;
71792;SDS011;59639;51.170;6.456;2022-08-05T13:28:35;9.50;;;3.83;;
71792;SDS011;59639;51.170;6.456;2022-08-05T13:31:01;5.10;;;3.45;;
71792;SDS011;59639;51.170;6.456;2022-08-05T13:33:26;5.60;;;3.20;;
71792;SDS011;59639;51.170;6.456;2022-08-05T13:35:52;10.27;;;2.63;;
71792;SDS011;59639;51.170;6.456;2022-08-05T13:38:18;14.45;;;3.08;;
71792;SDS011;59639;51.170;6.456;2022-08-05T13:40:44;4.50;;;2.10;;
71792;SDS011;59639;51.170;6.456;2022-08-05T13:43:10;8.32;;;2.80;;
71792;SDS011;59639;51.170;6.456;2022-08-05T13:45:35;9.05;;;2.90;;
71792;SDS011;59639;51.170;6.456;2022-08-05T13:48:01;9.35;;;2.78;;
71792;SDS011;59639;51.170;6.456;2022-08-05T13:50:26;5.28;;;2.25;;
71792;SDS011;59639;51.170;6.456;2022-08-05T13:52:52;6.40;;;2.67;;
71792;SDS011;59639;51.170;6.456;2022-08-05T13:55:17;8.32;;;2.35;;
71792;SDS011;59639;51.170;6.456;2022-08-05T13:57:42;6.07;;;2.50;;
71792;SDS011;59639;51.170;6.456;2022-08-05T14:00:08;7.78;;;2.08;;
71792;SDS011;59639;51.170;6.456;2022-08-05T14:02:34;6.28;;;2.30;;
71792;SDS011;59639;51.170;6.456;2022-08-05T14:04:59;6.50;;;2.10;;
71792;SDS011;59639;51.170;6.456;2022-08-05T14:07:42;12.15;;;3.03;;
71792;SDS011;59639;51.170;6.456;2022-08-05T14:12:41;10.73;;;2.67;;
71792;SDS011;59639;51.170;6.456;2022-08-05T14:15:08;6.28;;;2.90;;
71792;SDS011;59639;51.170;6.456;2022-08-05T14:17:34;5.75;;;2.28;;
71792;SDS011;59639;51.170;6.456;2022-08-05T14:20:00;6.20;;;2.53;;
71792;SDS011;59639;51.170;6.456;2022-08-05T14:22:25;3.88;;;1.88;;
71792;SDS011;59639;51.170;6.456;2022-08-05T14:24:52;7.45;;;2.15;;
71792;SDS011;59639;51.170;6.456;2022-08-05T14:27:17;7.93;;;1.95;;
71792;SDS011;59639;51.170;6.456;2022-08-05T14:29:42;4.78;;;2.15;;
71792;SDS011;59639;51.170;6.456;2022-08-05T14:32:08;4.82;;;2.08;;
71792;SDS011;59639;51.170;6.456;2022-08-05T14:34:33;7.70;;;1.63;;
71792;SDS011;59639;51.170;6.456;2022-08-05T14:36:59;5.97;;;2.00;;
71792;SDS011;59639;51.170;6.456;2022-08-05T14:39:25;8.05;;;1.80;;
71792;SDS011;59639;51.170;6.456;2022-08-05T14:41:51;7.55;;;2.00;;
71792;SDS011;59639;51.170;6.456;2022-08-05T14:44:16;4.10;;;1.55;;
71792;SDS011;59639;51.170;6.456;2022-08-05T14:46:42;9.90;;;1.67;;
71792;SDS011;59639;51.170;6.456;2022-08-05T14:49:07;6.90;;;1.30;;
71792;SDS011;59639;51.170;6.456;2022-08-05T14:51:34;3.17;;;1.70;;
71792;SDS011;59639;51.170;6.456;2022-08-05T14:54:00;4.40;;;2.75;;
71792;SDS011;59639;51.170;6.456;2022-08-05T14:56:26;4.45;;;1.10;;
71792;SDS011;59639;51.170;6.456;2022-08-05T14:58:51;3.72;;;1.17;;
71792;SDS011;59639;51.170;6.456;2022-08-05T15:01:17;3.28;;;1.20;;
71792;SDS011;59639;51.170;6.456;2022-08-05T15:03:43;3.38;;;1.77;;
71792;SDS011;59639;51.170;6.456;2022-08-05T15:06:09;5.05;;;1.08;;
71792;SDS011;59639;51.170;6.456;2022-08-05T15:08:34;9.43;;;2.20;;
71792;SDS011;59639;51.170;6.456;2022-08-05T15:11:00;3.55;;;1.92;;
71792;SDS011;59639;51.170;6.456;2022-08-05T15:13:25;2.42;;;1.48;;
71792;SDS011;59639;51.170;6.456;2022-08-05T15:15:50;1.92;;;1.15;;
71792;SDS011;59639;51.170;6.456;2022-08-05T15:18:16;6.70;;;1.40;;
71792;SDS011;59639;51.170;6.456;2022-08-05T15:20:41;4.82;;;1.65;;
71792;SDS011;59639;51.170;6.456;2022-08-05T15:23:07;7.00;;;1.35;;
71792;SDS011;59639;51.170;6.456;2022-08-05T15:25:35;3.42;;;1.17;;
71792;SDS011;59639;51.170;6.456;2022-08-05T15:28:01;3.42;;;1.52;;
71792;SDS011;59639;51.170;6.456;2022-08-05T15:30:26;4.63;;;1.00;;